Terminal Aerodrome Forecast
Issued by NWS Melbourne, FL

Home | Current Version | Previous Version | Text Only | Print | Product List | Glossary On
Versions: 1 2 3 4 5 6 7 8 9 10 11 12 13 14 15 16 17 18 19 20 21 22 23 24 25 26
000
FTUS42 KMLB 020800 AAA
TAFMCO
TAF AMD
KMCO 020851Z 0209/0306 00000KT P6SM BKN250
     FM021500 07006KT P6SM SCT030 SCT250
     FM021800 09010KT P6SM VCTS SCT040CB BKN080 BKN250
     FM022200 09008KT P6SM FEW040 BKN100=

USA.gov is the U.S. government's official web portal to all federal, state and local government web resources and services.